Vandergrift, Pennsylvania
Current Conditions -  °F | °C
As of 5:35 AM on Monday 26 Jan 2015 (Local Time) from KBTP Reporting Station
Overcast Overcast  
Wind Chill: -10°   Ceiling: 1500
Heat Index: -4°   Visibility: 9mi
Dew Point: -6°   Wind: 12mph
Humidity: 86%   Direction: 60°ENE
Pressure: 29.71"   Gusts: NA
Location:  40.6°N, 79.57°W
Report Text: KBTP 261035Z AUTO 06010KT 9SM OVC015 M04/M06 A2971 RMK AO1
Loading
Personal Weather Stations






























Interactive Weather Map New forecast layout! Learn more

10-Day Weather Forecast

Advertisements
Track Severe Weather on mobile